sensor_id;sensor_type;location;lat;lon;timestamp;pressure;altitude;pressure_sealevel;temperature;humidity
4836;BME280;66719;51.226;6.902;2023-01-10T00:00:30;100426.16;;;6.18;100.00
4836;BME280;66719;51.226;6.902;2023-01-10T00:03:01;100433.97;;;6.15;100.00
4836;BME280;66719;51.226;6.902;2023-01-10T00:05:27;100433.13;;;6.11;100.00
4836;BME280;66719;51.226;6.902;2023-01-10T00:07:54;100443.53;;;6.11;100.00
4836;BME280;66719;51.226;6.902;2023-01-10T00:10:20;100451.31;;;6.13;100.00
4836;BME280;66719;51.226;6.902;2023-01-10T00:12:47;100454.75;;;6.13;100.00
4836;BME280;66719;51.226;6.902;2023-01-10T00:15:33;100461.69;;;6.13;100.00
4836;BME280;66719;51.226;6.902;2023-01-10T00:18:00;100466.88;;;6.14;100.00
4836;BME280;66719;51.226;6.902;2023-01-10T00:20:26;100472.97;;;6.13;100.00
4836;BME280;66719;51.226;6.902;2023-01-10T00:22:53;100483.38;;;6.12;100.00
4836;BME280;66719;51.226;6.902;2023-01-10T00:25:20;100485.09;;;6.13;100.00
4836;BME280;66719;51.226;6.902;2023-01-10T00:27:47;100482.47;;;6.14;100.00
4836;BME280;66719;51.226;6.902;2023-01-10T00:30:29;100492.88;;;6.13;100.00
4836;BME280;66719;51.226;6.902;2023-01-10T00:32:56;100498.09;;;6.13;100.00
4836;BME280;66719;51.226;6.902;2023-01-10T00:35:23;100505.00;;;6.14;100.00
4836;BME280;66719;51.226;6.902;2023-01-10T00:37:49;100507.59;;;6.14;100.00
4836;BME280;66719;51.226;6.902;2023-01-10T00:40:17;100512.78;;;6.15;100.00
4836;BME280;66719;51.226;6.902;2023-01-10T00:42:43;100524.06;;;6.16;100.00
4836;BME280;66719;51.226;6.902;2023-01-10T00:45:28;100520.59;;;6.15;100.00
4836;BME280;66719;51.226;6.902;2023-01-10T00:47:55;100529.28;;;6.13;100.00
4836;BME280;66719;51.226;6.902;2023-01-10T00:50:22;100531.88;;;6.11;100.00
4836;BME280;66719;51.226;6.902;2023-01-10T00:52:49;100537.06;;;6.13;100.00
4836;BME280;66719;51.226;6.902;2023-01-10T00:55:15;100544.88;;;6.13;100.00
4836;BME280;66719;51.226;6.902;2023-01-10T00:57:41;100537.94;;;6.12;100.00
4836;BME280;66719;51.226;6.902;2023-01-10T01:00:08;100552.69;;;6.10;100.00
4836;BME280;66719;51.226;6.902;2023-01-10T01:02:37;100553.56;;;6.09;100.00
4836;BME280;66719;51.226;6.902;2023-01-10T01:05:04;100559.59;;;6.08;100.00
4836;BME280;66719;51.226;6.902;2023-01-10T01:07:30;100563.94;;;6.09;100.00
4836;BME280;66719;51.226;6.902;2023-01-10T01:09:57;100576.91;;;6.07;100.00
4836;BME280;66719;51.226;6.902;2023-01-10T01:12:42;100583.88;;;6.05;100.00
4836;BME280;66719;51.226;6.902;2023-01-10T01:15:09;100589.06;;;6.05;100.00
4836;BME280;66719;51.226;6.902;2023-01-10T01:17:35;100589.94;;;6.06;100.00
4836;BME280;66719;51.226;6.902;2023-01-10T01:20:02;100604.66;;;6.07;100.00
4836;BME280;66719;51.226;6.902;2023-01-10T01:22:29;100598.59;;;6.06;100.00
4836;BME280;66719;51.226;6.902;2023-01-10T01:24:55;100604.66;;;6.07;100.00
4836;BME280;66719;51.226;6.902;2023-01-10T01:27:22;100602.06;;;6.08;100.00
4836;BME280;66719;51.226;6.902;2023-01-10T01:29:48;100613.34;;;6.09;100.00
4836;BME280;66719;51.226;6.902;2023-01-10T01:32:15;100617.66;;;6.11;100.00
4836;BME280;66719;51.226;6.902;2023-01-10T01:34:41;100619.38;;;6.11;100.00
4836;BME280;66719;51.226;6.902;2023-01-10T01:37:08;100621.13;;;6.10;100.00
4836;BME280;66719;51.226;6.902;2023-01-10T01:39:34;100631.50;;;6.10;100.00
4836;BME280;66719;51.226;6.902;2023-01-10T01:42:01;100642.78;;;6.11;100.00
4836;BME280;66719;51.226;6.902;2023-01-10T01:44:34;100647.09;;;6.10;100.00
4836;BME280;66719;51.226;6.902;2023-01-10T01:47:05;100654.03;;;6.11;100.00
4836;BME280;66719;51.226;6.902;2023-01-10T01:49:35;100662.69;;;6.10;100.00
4836;BME280;66719;51.226;6.902;2023-01-10T01:52:17;100663.56;;;6.11;100.00
4836;BME280;66719;51.226;6.902;2023-01-10T01:54:47;100671.34;;;6.11;100.00
4836;BME280;66719;51.226;6.902;2023-01-10T01:57:18;100667.88;;;6.12;100.00
4836;BME280;66719;51.226;6.902;2023-01-10T01:59:48;100672.22;;;6.11;100.00
4836;BME280;66719;51.226;6.902;2023-01-10T02:02:38;100672.22;;;6.13;100.00
4836;BME280;66719;51.226;6.902;2023-01-10T02:05:23;100675.69;;;6.12;100.00
4836;BME280;66719;51.226;6.902;2023-01-10T02:07:55;100678.28;;;6.12;100.00
4836;BME280;66719;51.226;6.902;2023-01-10T02:13:10;100680.03;;;6.11;100.00
4836;BME280;66719;51.226;6.902;2023-01-10T02:15:38;100674.81;;;6.13;100.00
4836;BME280;66719;51.226;6.902;2023-01-10T02:18:05;100678.28;;;6.12;100.00
4836;BME280;66719;51.226;6.902;2023-01-10T02:21:14;100672.22;;;6.11;100.00
4836;BME280;66719;51.226;6.902;2023-01-10T02:32:08;100694.75;;;6.05;100.00
4836;BME280;66719;51.226;6.902;2023-01-10T02:37:44;100694.75;;;6.03;100.00
4836;BME280;66719;51.226;6.902;2023-01-10T02:40:36;100696.50;;;6.00;100.00
4836;BME280;66719;51.226;6.902;2023-01-10T02:43:12;100707.72;;;5.99;100.00
4836;BME280;66719;51.226;6.902;2023-01-10T02:45:43;100704.28;;;5.97;100.00
4836;BME280;66719;51.226;6.902;2023-01-10T02:48:12;100706.00;;;5.94;100.00
4836;BME280;66719;51.226;6.902;2023-01-10T02:53:17;100699.09;;;5.93;100.00
4836;BME280;66719;51.226;6.902;2023-01-10T02:55:57;100712.03;;;5.89;100.00
4836;BME280;66719;51.226;6.902;2023-01-10T02:59:09;100703.38;;;5.87;100.00
4836;BME280;66719;51.226;6.902;2023-01-10T03:01:40;100698.19;;;5.85;100.00
4836;BME280;66719;51.226;6.902;2023-01-10T03:09:43;100709.44;;;5.83;100.00
4836;BME280;66719;51.226;6.902;2023-01-10T03:15:19;100725.00;;;5.80;100.00
4836;BME280;66719;51.226;6.902;2023-01-10T03:17:49;100731.06;;;5.80;100.00
4836;BME280;66719;51.226;6.902;2023-01-10T03:20:19;100730.22;;;5.80;100.00
4836;BME280;66719;51.226;6.902;2023-01-10T03:22:46;100731.94;;;5.79;100.00
4836;BME280;66719;51.226;6.902;2023-01-10T03:25:15;100743.22;;;5.75;100.00
4836;BME280;66719;51.226;6.902;2023-01-10T03:27:50;100749.28;;;5.74;100.00
4836;BME280;66719;51.226;6.902;2023-01-10T03:30:28;100749.25;;;5.71;100.00
4836;BME280;66719;51.226;6.902;2023-01-10T03:32:56;100756.19;;;5.69;100.00
4836;BME280;66719;51.226;6.902;2023-01-10T03:41:06;100752.69;;;5.59;100.00
4836;BME280;66719;51.226;6.902;2023-01-10T03:43:52;100755.28;;;5.59;100.00
4836;BME280;66719;51.226;6.902;2023-01-10T03:46:52;100760.47;;;5.55;100.00
4836;BME280;66719;51.226;6.902;2023-01-10T03:49:21;100761.34;;;5.51;100.00
4836;BME280;66719;51.226;6.902;2023-01-10T03:51:50;100766.53;;;5.49;100.00
4836;BME280;66719;51.226;6.902;2023-01-10T03:54:18;100781.22;;;5.47;100.00
4836;BME280;66719;51.226;6.902;2023-01-10T03:56:50;100780.34;;;5.45;100.00
4836;BME280;66719;51.226;6.902;2023-01-10T03:59:18;100782.06;;;5.45;100.00
4836;BME280;66719;51.226;6.902;2023-01-10T04:01:46;100785.53;;;5.44;100.00
4836;BME280;66719;51.226;6.902;2023-01-10T04:04:12;100789.88;;;5.45;100.00
4836;BME280;66719;51.226;6.902;2023-01-10T04:06:39;100799.38;;;5.43;100.00
4836;BME280;66719;51.226;6.902;2023-01-10T04:09:07;100801.09;;;5.34;100.00
4836;BME280;66719;51.226;6.902;2023-01-10T04:11:33;100810.59;;;5.34;100.00
4836;BME280;66719;51.226;6.902;2023-01-10T04:14:00;100819.25;;;5.33;100.00
4836;BME280;66719;51.226;6.902;2023-01-10T04:16:26;100821.00;;;5.37;100.00
4836;BME280;66719;51.226;6.902;2023-01-10T04:18:53;100823.59;;;5.38;100.00
4836;BME280;66719;51.226;6.902;2023-01-10T04:21:19;100821.03;;;5.43;100.00
4836;BME280;66719;51.226;6.902;2023-01-10T04:23:46;100820.16;;;5.39;100.00
4836;BME280;66719;51.226;6.902;2023-01-10T04:26:12;100816.69;;;5.41;100.00
4836;BME280;66719;51.226;6.902;2023-01-10T04:28:39;100819.25;;;5.37;100.00
4836;BME280;66719;51.226;6.902;2023-01-10T04:31:05;100815.78;;;5.38;100.00
4836;BME280;66719;51.226;6.902;2023-01-10T04:33:32;100820.16;;;5.41;100.00
4836;BME280;66719;51.226;6.902;2023-01-10T04:35:58;100825.34;;;5.39;100.00
4836;BME280;66719;51.226;6.902;2023-01-10T04:38:25;100824.44;;;5.37;100.00
4836;BME280;66719;51.226;6.902;2023-01-10T04:40:55;100818.38;;;5.35;100.00
4836;BME280;66719;51.226;6.902;2023-01-10T04:43:25;100827.03;;;5.37;100.00
4836;BME280;66719;51.226;6.902;2023-01-10T04:45:51;100822.72;;;5.36;100.00
4836;BME280;66719;51.226;6.902;2023-01-10T04:48:18;100824.44;;;5.36;100.00
4836;BME280;66719;51.226;6.902;2023-01-10T04:50:52;100835.72;;;5.39;100.00
4836;BME280;66719;51.226;6.902;2023-01-10T04:53:20;100827.94;;;5.41;100.00
4836;BME280;66719;51.226;6.902;2023-01-10T04:55:47;100834.00;;;5.45;100.00
4836;BME280;66719;51.226;6.902;2023-01-10T04:58:13;100832.28;;;5.45;100.00
4836;BME280;66719;51.226;6.902;2023-01-10T05:00:40;100833.13;;;5.44;100.00
4836;BME280;66719;51.226;6.902;2023-01-10T05:03:07;100842.66;;;5.47;100.00
4836;BME280;66719;51.226;6.902;2023-01-10T05:05:33;100844.38;;;5.46;100.00
4836;BME280;66719;51.226;6.902;2023-01-10T05:08:00;100849.59;;;5.46;100.00
4836;BME280;66719;51.226;6.902;2023-01-10T05:10:27;100857.38;;;5.46;100.00
4836;BME280;66719;51.226;6.902;2023-01-10T05:12:53;100846.13;;;5.46;100.00
4836;BME280;66719;51.226;6.902;2023-01-10T05:15:19;100851.31;;;5.47;100.00
4836;BME280;66719;51.226;6.902;2023-01-10T05:17:48;100856.50;;;5.47;100.00
4836;BME280;66719;51.226;6.902;2023-01-10T05:20:16;100860.00;;;5.48;100.00
4836;BME280;66719;51.226;6.902;2023-01-10T05:22:42;100866.88;;;5.47;100.00
4836;BME280;66719;51.226;6.902;2023-01-10T05:25:09;100866.06;;;5.51;100.00
4836;BME280;66719;51.226;6.902;2023-01-10T05:27:39;100872.09;;;5.47;100.00
4836;BME280;66719;51.226;6.902;2023-01-10T05:30:09;100877.31;;;5.49;100.00
4836;BME280;66719;51.226;6.902;2023-01-10T05:32:36;100870.34;;;5.46;100.00
4836;BME280;66719;51.226;6.902;2023-01-10T05:35:03;100869.47;;;5.44;100.00
4836;BME280;66719;51.226;6.902;2023-01-10T05:37:29;100868.63;;;5.44;100.00
4836;BME280;66719;51.226;6.902;2023-01-10T05:39:56;100876.41;;;5.42;100.00
4836;BME280;66719;51.226;6.902;2023-01-10T05:42:22;100889.38;;;5.39;100.00
4836;BME280;66719;51.226;6.902;2023-01-10T05:44:49;100886.75;;;5.36;100.00
4836;BME280;66719;51.226;6.902;2023-01-10T05:47:15;100901.47;;;5.34;100.00
4836;BME280;66719;51.226;6.902;2023-01-10T05:49:42;100896.25;;;5.32;100.00
4836;BME280;66719;51.226;6.902;2023-01-10T05:52:08;100897.09;;;5.30;100.00
4836;BME280;66719;51.226;6.902;2023-01-10T05:54:35;100897.94;;;5.29;100.00
4836;BME280;66719;51.226;6.902;2023-01-10T05:57:01;100898.81;;;5.26;100.00
4836;BME280;66719;51.226;6.902;2023-01-10T05:59:28;100899.69;;;5.27;100.00
4836;BME280;66719;51.226;6.902;2023-01-10T06:01:54;100887.56;;;5.24;100.00
4836;BME280;66719;51.226;6.902;2023-01-10T06:04:21;100896.22;;;5.23;100.00
4836;BME280;66719;51.226;6.902;2023-01-10T06:06:47;100906.56;;;5.20;100.00
4836;BME280;66719;51.226;6.902;2023-01-10T06:09:14;100924.72;;;5.20;100.00
4836;BME280;66719;51.226;6.902;2023-01-10T06:11:40;100928.16;;;5.19;100.00
4836;BME280;66719;51.226;6.902;2023-01-10T06:14:07;100930.78;;;5.19;100.00
4836;BME280;66719;51.226;6.902;2023-01-10T06:16:33;100930.78;;;5.19;100.00
4836;BME280;66719;51.226;6.902;2023-01-10T06:19:00;100930.78;;;5.21;100.00
4836;BME280;66719;51.226;6.902;2023-01-10T06:21:26;100940.31;;;5.22;100.00
4836;BME280;66719;51.226;6.902;2023-01-10T06:23:53;100944.66;;;5.24;100.00
4836;BME280;66719;51.226;6.902;2023-01-10T06:26:19;100936.88;;;5.26;100.00
4836;BME280;66719;51.226;6.902;2023-01-10T06:28:46;100943.81;;;5.28;100.00
4836;BME280;66719;51.226;6.902;2023-01-10T06:31:13;100949.03;;;5.31;100.00
4836;BME280;66719;51.226;6.902;2023-01-10T06:33:40;100950.78;;;5.32;100.00
4836;BME280;66719;51.226;6.902;2023-01-10T06:36:09;100969.81;;;5.31;100.00
4836;BME280;66719;51.226;6.902;2023-01-10T06:38:36;100968.94;;;5.32;100.00
4836;BME280;66719;51.226;6.902;2023-01-10T06:41:03;100981.94;;;5.34;100.00
4836;BME280;66719;51.226;6.902;2023-01-10T06:43:43;100977.59;;;5.34;100.00
4836;BME280;66719;51.226;6.902;2023-01-10T06:46:16;100978.47;;;5.33;100.00
4836;BME280;66719;51.226;6.902;2023-01-10T06:48:44;100980.19;;;5.34;100.00
4836;BME280;66719;51.226;6.902;2023-01-10T06:51:12;100985.38;;;5.36;100.00
4836;BME280;66719;51.226;6.902;2023-01-10T06:53:40;100988.03;;;5.39;100.00
4836;BME280;66719;51.226;6.902;2023-01-10T06:56:07;100992.38;;;5.40;100.00
4836;BME280;66719;51.226;6.902;2023-01-10T06:58:36;101001.03;;;5.42;100.00
4836;BME280;66719;51.226;6.902;2023-01-10T07:01:05;100999.28;;;5.41;100.00
4836;BME280;66719;51.226;6.902;2023-01-10T07:03:32;101006.22;;;5.42;100.00
4836;BME280;66719;51.226;6.902;2023-01-10T07:06:02;101010.53;;;5.42;100.00
4836;BME280;66719;51.226;6.902;2023-01-10T07:08:28;101014.88;;;5.41;100.00
4836;BME280;66719;51.226;6.902;2023-01-10T07:10:56;101019.19;;;5.41;100.00
4836;BME280;66719;51.226;6.902;2023-01-10T07:13:23;101014.00;;;5.41;100.00
4836;BME280;66719;51.226;6.902;2023-01-10T07:15:50;101011.41;;;5.42;100.00
4836;BME280;66719;51.226;6.902;2023-01-10T07:18:16;101026.13;;;5.45;100.00
4836;BME280;66719;51.226;6.902;2023-01-10T07:20:43;101030.44;;;5.43;100.00
4836;BME280;66719;51.226;6.902;2023-01-10T07:23:10;101025.25;;;5.44;100.00
4836;BME280;66719;51.226;6.902;2023-01-10T07:25:36;101028.72;;;5.45;100.00
4836;BME280;66719;51.226;6.902;2023-01-10T07:28:03;101046.91;;;5.45;100.00
4836;BME280;66719;51.226;6.902;2023-01-10T07:30:30;101036.50;;;5.45;100.00
4836;BME280;66719;51.226;6.902;2023-01-10T07:32:57;101044.31;;;5.46;100.00
4836;BME280;66719;51.226;6.902;2023-01-10T07:35:24;101044.34;;;5.48;100.00
4836;BME280;66719;51.226;6.902;2023-01-10T07:37:51;101049.53;;;5.48;100.00
4836;BME280;66719;51.226;6.902;2023-01-10T07:40:18;101053.88;;;5.50;100.00
4836;BME280;66719;51.226;6.902;2023-01-10T07:42:44;101053.00;;;5.51;100.00
4836;BME280;66719;51.226;6.902;2023-01-10T07:45:11;101052.13;;;5.49;100.00
4836;BME280;66719;51.226;6.902;2023-01-10T07:47:37;101057.34;;;5.51;100.00
4836;BME280;66719;51.226;6.902;2023-01-10T07:50:04;101063.41;;;5.50;100.00
4836;BME280;66719;51.226;6.902;2023-01-10T07:52:32;101057.31;;;5.48;100.00
4836;BME280;66719;51.226;6.902;2023-01-10T07:54:58;101068.53;;;5.47;100.00
4836;BME280;66719;51.226;6.902;2023-01-10T07:57:25;101072.00;;;5.47;100.00
4836;BME280;66719;51.226;6.902;2023-01-10T07:59:51;101070.31;;;5.48;100.00
4836;BME280;66719;51.226;6.902;2023-01-10T08:02:18;101067.72;;;5.49;100.00
4836;BME280;66719;51.226;6.902;2023-01-10T08:04:44;101077.19;;;5.46;100.00
4836;BME280;66719;51.226;6.902;2023-01-10T08:07:11;101086.72;;;5.45;100.00
4836;BME280;66719;51.226;6.902;2023-01-10T08:09:37;101087.56;;;5.44;100.00
4836;BME280;66719;51.226;6.902;2023-01-10T08:12:04;101098.81;;;5.40;100.00
4836;BME280;66719;51.226;6.902;2023-01-10T08:14:30;101095.31;;;5.38;100.00
4836;BME280;66719;51.226;6.902;2023-01-10T08:16:56;101102.22;;;5.36;100.00
4836;BME280;66719;51.226;6.902;2023-01-10T08:19:24;101103.06;;;5.32;100.00
4836;BME280;66719;51.226;6.902;2023-01-10T08:21:50;101107.31;;;5.28;100.00
4836;BME280;66719;51.226;6.902;2023-01-10T08:24:17;101120.31;;;5.27;100.00
4836;BME280;66719;51.226;6.902;2023-01-10T08:26:43;101119.41;;;5.23;100.00
4836;BME280;66719;51.226;6.902;2023-01-10T08:29:10;101127.19;;;5.23;100.00
4836;BME280;66719;51.226;6.902;2023-01-10T08:31:36;101119.41;;;5.23;100.00
4836;BME280;66719;51.226;6.902;2023-01-10T08:34:05;101127.16;;;5.20;100.00
4836;BME280;66719;51.226;6.902;2023-01-10T08:36:31;101122.81;;;5.21;100.00
4836;BME280;66719;51.226;6.902;2023-01-10T08:38:58;101119.34;;;5.19;100.00
4836;BME280;66719;51.226;6.902;2023-01-10T08:41:24;101115.88;;;5.18;100.00
4836;BME280;66719;51.226;6.902;2023-01-10T08:43:51;101127.13;;;5.17;100.00
4836;BME280;66719;51.226;6.902;2023-01-10T08:46:18;101121.94;;;5.16;100.00
4836;BME280;66719;51.226;6.902;2023-01-10T08:48:46;101134.06;;;5.17;100.00
4836;BME280;66719;51.226;6.902;2023-01-10T08:51:13;101121.06;;;5.15;100.00
4836;BME280;66719;51.226;6.902;2023-01-10T08:53:40;101137.53;;;5.19;100.00
4836;BME280;66719;51.226;6.902;2023-01-10T08:56:07;101133.19;;;5.19;100.00
4836;BME280;66719;51.226;6.902;2023-01-10T08:58:34;101135.81;;;5.21;100.00
4836;BME280;66719;51.226;6.902;2023-01-10T09:01:05;101131.53;;;5.23;100.00
4836;BME280;66719;51.226;6.902;2023-01-10T09:03:32;101139.31;;;5.26;100.00
4836;BME280;66719;51.226;6.902;2023-01-10T09:06:00;101134.16;;;5.27;100.00
4836;BME280;66719;51.226;6.902;2023-01-10T09:08:27;101139.41;;;5.32;100.00
4836;BME280;66719;51.226;6.902;2023-01-10T09:10:53;101134.22;;;5.32;100.00
4836;BME280;66719;51.226;6.902;2023-01-10T09:13:20;101131.63;;;5.33;100.00
4836;BME280;66719;51.226;6.902;2023-01-10T09:15:46;101125.56;;;5.34;100.00
4836;BME280;66719;51.226;6.902;2023-01-10T09:18:13;101129.88;;;5.34;100.00
4836;BME280;66719;51.226;6.902;2023-01-10T09:20:40;101131.59;;;5.32;100.00
4836;BME280;66719;51.226;6.902;2023-01-10T09:23:09;101129.03;;;5.33;100.00
4836;BME280;66719;51.226;6.902;2023-01-10T09:25:36;101135.09;;;5.34;100.00
4836;BME280;66719;51.226;6.902;2023-01-10T09:28:04;101146.34;;;5.36;100.00
4836;BME280;66719;51.226;6.902;2023-01-10T09:30:31;101142.03;;;5.38;100.00
4836;BME280;66719;51.226;6.902;2023-01-10T09:32:58;101139.50;;;5.44;100.00
4836;BME280;66719;51.226;6.902;2023-01-10T09:35:26;101139.56;;;5.49;100.00
4836;BME280;66719;51.226;6.902;2023-01-10T09:37:54;101141.31;;;5.54;100.00
4836;BME280;66719;51.226;6.902;2023-01-10T09:51:32;101139.78;;;5.75;100.00
4836;BME280;66719;51.226;6.902;2023-01-10T09:54:04;101141.53;;;5.79;100.00
4836;BME280;66719;51.226;6.902;2023-01-10T09:56:38;101147.59;;;5.79;100.00
4836;BME280;66719;51.226;6.902;2023-01-10T09:59:12;101154.56;;;5.83;100.00
4836;BME280;66719;51.226;6.902;2023-01-10T10:01:40;101148.50;;;5.86;100.00
4836;BME280;66719;51.226;6.902;2023-01-10T10:04:29;101139.84;;;5.88;100.00
4836;BME280;66719;51.226;6.902;2023-01-10T10:06:59;101151.19;;;5.92;100.00
4836;BME280;66719;51.226;6.902;2023-01-10T10:09:29;101143.41;;;5.95;100.00
4836;BME280;66719;51.226;6.902;2023-01-10T10:14:30;101144.34;;;6.06;100.00
4836;BME280;66719;51.226;6.902;2023-01-10T10:17:23;101153.06;;;6.10;100.00
4836;BME280;66719;51.226;6.902;2023-01-10T10:26:24;101137.53;;;6.23;100.00
4836;BME280;66719;51.226;6.902;2023-01-10T10:32:24;101134.09;;;6.29;100.00
4836;BME280;66719;51.226;6.902;2023-01-10T10:35:02;101132.41;;;6.37;100.00
4836;BME280;66719;51.226;6.902;2023-01-10T10:37:40;101124.63;;;6.39;100.00
4836;BME280;66719;51.226;6.902;2023-01-10T10:42:42;101126.38;;;6.44;100.00
4836;BME280;66719;51.226;6.902;2023-01-10T10:48:09;101128.13;;;6.50;100.00
4836;BME280;66719;51.226;6.902;2023-01-10T10:53:17;101117.78;;;6.61;100.00
4836;BME280;66719;51.226;6.902;2023-01-10T10:55:44;101110.84;;;6.66;100.00
4836;BME280;66719;51.226;6.902;2023-01-10T10:58:12;101103.06;;;6.67;100.00
4836;BME280;66719;51.226;6.902;2023-01-10T11:00:40;101102.22;;;6.71;100.00
4836;BME280;66719;51.226;6.902;2023-01-10T11:05:59;101080.53;;;6.74;100.00
4836;BME280;66719;51.226;6.902;2023-01-10T11:08:27;101090.09;;;6.79;100.00
4836;BME280;66719;51.226;6.902;2023-01-10T11:10:56;101090.97;;;6.83;100.00
4836;BME280;66719;51.226;6.902;2023-01-10T11:13:45;101088.34;;;6.86;100.00
4836;BME280;66719;51.226;6.902;2023-01-10T11:16:40;101079.72;;;6.87;100.00
4836;BME280;66719;51.226;6.902;2023-01-10T11:19:23;101074.50;;;6.87;100.00
4836;BME280;66719;51.226;6.902;2023-01-10T11:22:01;101072.78;;;6.91;100.00
4836;BME280;66719;51.226;6.902;2023-01-10T11:24:38;101071.03;;;6.94;100.00
4836;BME280;66719;51.226;6.902;2023-01-10T11:27:24;101069.31;;;6.96;100.00
4836;BME280;66719;51.226;6.902;2023-01-10T11:29:55;101069.31;;;6.98;100.00
4836;BME280;66719;51.226;6.902;2023-01-10T11:32:38;101065.84;;;6.97;100.00
4836;BME280;66719;51.226;6.902;2023-01-10T11:35:08;101063.22;;;7.03;100.00
4836;BME280;66719;51.226;6.902;2023-01-10T11:37:41;101063.25;;;7.05;100.00
4836;BME280;66719;51.226;6.902;2023-01-10T11:40:25;101069.34;;;7.07;100.00
4836;BME280;66719;51.226;6.902;2023-01-10T11:42:54;101068.47;;;7.09;100.00
4836;BME280;66719;51.226;6.902;2023-01-10T11:48:06;101069.34;;;7.15;100.00
4836;BME280;66719;51.226;6.902;2023-01-10T11:50:40;101069.34;;;7.18;100.00
4836;BME280;66719;51.226;6.902;2023-01-10T11:53:40;101064.13;;;7.21;100.00
4836;BME280;66719;51.226;6.902;2023-01-10T11:56:10;101059.78;;;7.26;100.00
4836;BME280;66719;51.226;6.902;2023-01-10T11:58:38;101048.50;;;7.28;100.00
4836;BME280;66719;51.226;6.902;2023-01-10T12:01:30;101043.31;;;7.33;100.00
4836;BME280;66719;51.226;6.902;2023-01-10T12:03:59;101042.44;;;7.32;100.00
4836;BME280;66719;51.226;6.902;2023-01-10T12:06:26;101040.69;;;7.33;100.00
4836;BME280;66719;51.226;6.902;2023-01-10T12:08:53;101029.41;;;7.37;100.00
4836;BME280;66719;51.226;6.902;2023-01-10T12:11:31;101035.50;;;7.39;100.00
4836;BME280;66719;51.226;6.902;2023-01-10T12:14:00;101034.63;;;7.42;100.00
4836;BME280;66719;51.226;6.902;2023-01-10T12:16:29;101034.59;;;7.45;100.00
4836;BME280;66719;51.226;6.902;2023-01-10T12:18:58;101038.94;;;7.44;100.00
4836;BME280;66719;51.226;6.902;2023-01-10T12:21:27;101043.28;;;7.45;100.00
4836;BME280;66719;51.226;6.902;2023-01-10T12:23:57;101035.47;;;7.51;100.00
4836;BME280;66719;51.226;6.902;2023-01-10T12:26:28;101027.66;;;7.51;100.00
4836;BME280;66719;51.226;6.902;2023-01-10T12:29:00;101028.53;;;7.53;100.00
4836;BME280;66719;51.226;6.902;2023-01-10T12:31:31;101023.34;;;7.56;100.00
4836;BME280;66719;51.226;6.902;2023-01-10T12:34:04;101018.13;;;7.58;100.00
4836;BME280;66719;51.226;6.902;2023-01-10T12:39:29;101027.63;;;7.62;100.00
4836;BME280;66719;51.226;6.902;2023-01-10T12:42:10;101018.94;;;7.63;100.00
4836;BME280;66719;51.226;6.902;2023-01-10T12:45:09;101018.06;;;7.64;100.00
4836;BME280;66719;51.226;6.902;2023-01-10T12:50:46;101017.22;;;7.63;100.00
4836;BME280;66719;51.226;6.902;2023-01-10T12:53:32;101008.53;;;7.66;100.00
4836;BME280;66719;51.226;6.902;2023-01-10T12:56:03;100997.25;;;7.65;100.00
4836;BME280;66719;51.226;6.902;2023-01-10T13:01:30;100996.38;;;7.67;100.00
4836;BME280;66719;51.226;6.902;2023-01-10T13:04:02;100998.97;;;7.70;100.00
4836;BME280;66719;51.226;6.902;2023-01-10T13:06:37;100985.09;;;7.68;100.00
4836;BME280;66719;51.226;6.902;2023-01-10T13:09:12;100985.06;;;7.71;100.00
4836;BME280;66719;51.226;6.902;2023-01-10T13:12:07;100969.44;;;7.68;100.00
4836;BME280;66719;51.226;6.902;2023-01-10T13:14:37;100965.09;;;7.71;100.00
4836;BME280;66719;51.226;6.902;2023-01-10T13:17:18;100953.78;;;7.71;100.00
4836;BME280;66719;51.226;6.902;2023-01-10T13:20:18;100958.16;;;7.69;100.00
4836;BME280;66719;51.226;6.902;2023-01-10T13:22:50;100956.41;;;7.69;100.00
4836;BME280;66719;51.226;6.902;2023-01-10T13:28:03;100964.25;;;7.68;100.00
4836;BME280;66719;51.226;6.902;2023-01-10T13:30:38;100958.16;;;7.67;100.00
4836;BME280;66719;51.226;6.902;2023-01-10T13:33:20;100956.41;;;7.68;100.00
4836;BME280;66719;51.226;6.902;2023-01-10T13:35:48;100945.13;;;7.64;100.00
4836;BME280;66719;51.226;6.902;2023-01-10T13:38:25;100955.53;;;7.64;100.00
4836;BME280;66719;51.226;6.902;2023-01-10T13:41:03;100955.53;;;7.64;100.00
4836;BME280;66719;51.226;6.902;2023-01-10T13:51:18;100939.06;;;7.59;100.00
4836;BME280;66719;51.226;6.902;2023-01-10T13:56:33;100942.53;;;7.59;100.00
4836;BME280;66719;51.226;6.902;2023-01-10T13:59:00;100936.47;;;7.57;100.00
4836;BME280;66719;51.226;6.902;2023-01-10T14:01:48;100931.25;;;7.54;100.00
4836;BME280;66719;51.226;6.902;2023-01-10T14:04:43;100922.59;;;7.52;100.00
4836;BME280;66719;51.226;6.902;2023-01-10T14:07:23;100926.94;;;7.52;100.00
4836;BME280;66719;51.226;6.902;2023-01-10T14:09:51;100919.13;;;7.50;100.00
4836;BME280;66719;51.226;6.902;2023-01-10T14:12:33;100917.38;;;7.51;100.00
4836;BME280;66719;51.226;6.902;2023-01-10T14:15:19;100906.97;;;7.49;100.00
4836;BME280;66719;51.226;6.902;2023-01-10T14:18:30;100905.25;;;7.48;100.00
4836;BME280;66719;51.226;6.902;2023-01-10T14:21:01;100906.97;;;7.46;100.00
4836;BME280;66719;51.226;6.902;2023-01-10T14:23:34;100901.78;;;7.43;100.00
4836;BME280;66719;51.226;6.902;2023-01-10T14:26:02;100889.63;;;7.44;100.00
4836;BME280;66719;51.226;6.902;2023-01-10T14:28:32;100892.22;;;7.44;100.00
4836;BME280;66719;51.226;6.902;2023-01-10T14:31:02;100889.63;;;7.42;100.00
4836;BME280;66719;51.226;6.902;2023-01-10T14:33:31;100891.38;;;7.40;100.00
4836;BME280;66719;51.226;6.902;2023-01-10T14:36:02;100883.56;;;7.42;100.00
4836;BME280;66719;51.226;6.902;2023-01-10T14:38:32;100877.50;;;7.40;100.00
4836;BME280;66719;51.226;6.902;2023-01-10T14:41:06;100875.72;;;7.43;100.00
4836;BME280;66719;51.226;6.902;2023-01-10T14:43:40;100855.78;;;7.41;100.00
4836;BME280;66719;51.226;6.902;2023-01-10T14:46:32;100867.06;;;7.41;100.00
4836;BME280;66719;51.226;6.902;2023-01-10T14:49:21;100867.06;;;7.41;100.00